createdAt,value
2019-02-19T00:02:22.798Z,101085.09
2019-02-19T00:04:51.648Z,101083.80
2019-02-19T00:07:20.546Z,101084.70
2019-02-19T00:09:49.423Z,101079.05
2019-02-19T00:12:18.294Z,101078.35
2019-02-19T00:14:47.156Z,101077.16
2019-02-19T00:17:16.030Z,101075.24
2019-02-19T00:19:44.899Z,101067.22
2019-02-19T00:22:13.759Z,101071.77
2019-02-19T00:24:42.624Z,101073.00
2019-02-19T00:27:11.481Z,101072.60
2019-02-19T00:29:40.335Z,101072.30
2019-02-19T00:32:09.214Z,101070.31
2019-02-19T00:34:38.090Z,101072.37
2019-02-19T00:37:06.931Z,101066.45
2019-02-19T00:39:35.809Z,101070.50
2019-02-19T00:42:04.666Z,101069.84
2019-02-19T00:44:33.530Z,101071.61
2019-02-19T00:47:02.404Z,101070.61
2019-02-19T00:49:31.274Z,101061.30
2019-02-19T00:52:00.128Z,101061.38
2019-02-19T00:54:29.009Z,101053.18
2019-02-19T00:56:57.882Z,101056.15
2019-02-19T00:59:27.668Z,101056.48
2019-02-19T01:01:56.567Z,101050.73
2019-02-19T01:04:25.562Z,101051.62
2019-02-19T01:06:54.452Z,101048.27
2019-02-19T01:09:23.314Z,101054.12
2019-02-19T01:11:52.196Z,101043.49
2019-02-19T01:14:21.074Z,101043.53
2019-02-19T01:16:49.950Z,101038.87
2019-02-19T01:19:18.831Z,101040.27
2019-02-19T01:21:47.742Z,101035.17
2019-02-19T01:24:16.616Z,101033.59
2019-02-19T01:26:45.511Z,101024.48
2019-02-19T01:29:14.386Z,101021.96
2019-02-19T01:31:43.234Z,101024.02
2019-02-19T01:34:12.103Z,101024.41
2019-02-19T01:36:41.331Z,101017.70
2019-02-19T01:39:10.208Z,101012.95
2019-02-19T01:41:39.067Z,101011.25
2019-02-19T01:44:07.940Z,101008.82
2019-02-19T01:46:36.824Z,101004.27
2019-02-19T01:49:05.732Z,100993.21
2019-02-19T01:51:34.593Z,101000.64
2019-02-19T01:54:03.448Z,100999.55
2019-02-19T01:56:32.346Z,100998.47
2019-02-19T01:59:01.210Z,100996.27
2019-02-19T02:01:30.081Z,100989.25
2019-02-19T02:03:58.944Z,100986.72
2019-02-19T02:06:27.819Z,100996.55
2019-02-19T02:08:56.684Z,100991.23
2019-02-19T02:11:25.586Z,100998.84
2019-02-19T02:13:54.452Z,100992.30
2019-02-19T02:16:23.314Z,100996.78
2019-02-19T02:18:52.187Z,100997.27
2019-02-19T02:21:21.057Z,100998.55
2019-02-19T02:23:49.938Z,100995.67
2019-02-19T02:26:18.819Z,100989.95
2019-02-19T02:28:47.666Z,100985.51
2019-02-19T02:31:16.559Z,100990.76
2019-02-19T02:33:45.419Z,100989.77
2019-02-19T02:36:14.288Z,100982.34
2019-02-19T02:38:43.225Z,100984.04
2019-02-19T02:41:12.092Z,100985.40
2019-02-19T02:43:40.950Z,100980.08
2019-02-19T02:46:09.833Z,100981.77
2019-02-19T02:48:38.713Z,100972.36
2019-02-19T02:51:07.601Z,100970.95
2019-02-19T02:53:36.450Z,100971.19
2019-02-19T02:56:05.337Z,100965.63
2019-02-19T02:58:34.228Z,100964.47
2019-02-19T03:01:03.071Z,100970.09
2019-02-19T03:03:31.935Z,100962.08
2019-02-19T03:06:03.330Z,100966.23
2019-02-19T03:08:32.176Z,100963.98
2019-02-19T03:11:01.065Z,100965.23
2019-02-19T03:13:29.902Z,100966.23
2019-02-19T03:16:02.438Z,100965.46
2019-02-19T03:18:29.374Z,100970.38
2019-02-19T03:20:58.238Z,100962.48
2019-02-19T03:23:27.121Z,100956.83
2019-02-19T03:25:56.030Z,100962.89
2019-02-19T03:28:24.958Z,100960.20
2019-02-19T03:30:53.861Z,100958.33
2019-02-19T03:33:22.722Z,100961.48
2019-02-19T03:35:51.597Z,100958.11
2019-02-19T03:38:20.453Z,100956.24
2019-02-19T03:40:49.345Z,100959.44
2019-02-19T03:43:18.195Z,100959.80
2019-02-19T03:45:47.068Z,100960.42
2019-02-19T03:48:15.930Z,100962.08
2019-02-19T03:50:44.785Z,100960.50
2019-02-19T03:53:13.671Z,100961.78
2019-02-19T03:55:42.533Z,100964.88
2019-02-19T03:58:11.392Z,100967.22
2019-02-19T04:00:40.450Z,100972.17
2019-02-19T04:03:09.332Z,100966.45
2019-02-19T04:05:38.221Z,100964.65
2019-02-19T04:08:07.075Z,100964.17
2019-02-19T04:10:35.953Z,100962.37
2019-02-19T04:13:05.146Z,100957.45
2019-02-19T04:15:34.014Z,100966.05
2019-02-19T04:18:02.872Z,100963.37
2019-02-19T04:20:31.746Z,100966.27
2019-02-19T04:23:00.612Z,100958.05
2019-02-19T04:25:29.484Z,100960.50
2019-02-19T04:27:58.383Z,100956.34
2019-02-19T04:30:27.255Z,100957.25
2019-02-19T04:32:56.113Z,100959.52
2019-02-19T04:35:24.993Z,100956.11
2019-02-19T04:37:53.866Z,100955.50
2019-02-19T04:40:22.718Z,100949.13
2019-02-19T04:42:51.619Z,100949.03
2019-02-19T04:45:20.505Z,100948.77
2019-02-19T04:47:49.390Z,100946.77
2019-02-19T04:50:19.725Z,100951.17
2019-02-19T04:52:48.706Z,100948.92
2019-02-19T04:55:17.752Z,100944.66
2019-02-19T04:57:46.623Z,100948.59
2019-02-19T05:00:15.647Z,100950.79
2019-02-19T05:02:44.528Z,100943.23
2019-02-19T05:05:13.403Z,100952.03
2019-02-19T05:07:42.265Z,100943.11
2019-02-19T05:10:11.141Z,100939.36
2019-02-19T05:12:40.032Z,100946.26
2019-02-19T05:15:11.035Z,100950.08
2019-02-19T05:17:39.899Z,100947.05
2019-02-19T05:20:09.618Z,100945.52
2019-02-19T05:22:38.484Z,100954.73
2019-02-19T05:25:08.143Z,100955.17
2019-02-19T05:27:37.010Z,100946.03
2019-02-19T05:30:09.215Z,100948.50
2019-02-19T05:32:38.254Z,100939.66
2019-02-19T05:35:08.252Z,100950.67
2019-02-19T05:37:37.148Z,100956.30
2019-02-19T05:40:08.069Z,100952.84
2019-02-19T05:42:36.944Z,100956.91
2019-02-19T05:45:08.758Z,100949.89
2019-02-19T05:47:37.650Z,100950.41
2019-02-19T05:50:08.741Z,100952.30
2019-02-19T05:52:37.620Z,100953.59
2019-02-19T05:55:08.155Z,100953.76
2019-02-19T05:57:37.040Z,100952.47
2019-02-19T06:00:09.335Z,100951.63
2019-02-19T06:02:38.227Z,100955.34
2019-02-19T06:05:09.131Z,100962.94
2019-02-19T06:07:37.977Z,100966.77
2019-02-19T06:10:09.925Z,100962.80
2019-02-19T06:12:38.785Z,100971.81
2019-02-19T06:15:10.017Z,100971.38
2019-02-19T06:17:39.036Z,100970.50
2019-02-19T06:20:08.966Z,100973.17
2019-02-19T06:22:37.936Z,100976.83
2019-02-19T06:25:08.799Z,100981.78
2019-02-19T06:27:37.736Z,100979.95
2019-02-19T06:30:09.677Z,100986.08
2019-02-19T06:32:38.933Z,100984.55
2019-02-19T06:35:08.851Z,100976.95
2019-02-19T06:37:37.735Z,100980.59
2019-02-19T06:40:09.185Z,100983.08
2019-02-19T06:42:38.065Z,100985.05
2019-02-19T06:45:07.081Z,100990.33
2019-02-19T06:47:35.971Z,100997.01
2019-02-19T06:50:05.620Z,100996.59
2019-02-19T06:52:34.493Z,100998.60
2019-02-19T06:55:03.399Z,100996.66
2019-02-19T06:57:32.326Z,101002.30
2019-02-19T07:00:01.223Z,101004.09
2019-02-19T07:02:49.823Z,101014.39
2019-02-19T07:05:23.311Z,101011.45
2019-02-19T07:07:52.152Z,101016.69
2019-02-19T07:10:21.018Z,101015.23
2019-02-19T07:12:49.929Z,101012.64
2019-02-19T07:15:18.823Z,101018.80
2019-02-19T07:17:47.689Z,101015.02
2019-02-19T07:20:16.557Z,101016.87
2019-02-19T07:22:45.448Z,101024.61
2019-02-19T07:25:14.306Z,101013.57
2019-02-19T07:27:43.181Z,101013.57
2019-02-19T07:30:12.660Z,101023.89
2019-02-19T07:32:41.529Z,101015.47
2019-02-19T07:35:10.913Z,101019.25
2019-02-19T07:37:39.787Z,101010.88
2019-02-19T07:40:09.225Z,101018.66
2019-02-19T07:42:37.822Z,101016.95
2019-02-19T07:45:11.625Z,101011.58
2019-02-19T07:47:40.491Z,101020.14
2019-02-19T07:50:11.708Z,101021.58
2019-02-19T07:52:40.296Z,101027.41
2019-02-19T07:55:10.805Z,101025.89
2019-02-19T07:57:39.351Z,101032.09
2019-02-19T08:00:12.805Z,101035.17
2019-02-19T08:02:41.463Z,101031.48
2019-02-19T08:05:10.104Z,101031.29
2019-02-19T08:07:38.943Z,101033.97
2019-02-19T08:10:11.869Z,101037.13
2019-02-19T08:12:40.464Z,101036.89
2019-02-19T08:15:10.862Z,101037.27
2019-02-19T08:17:39.422Z,101041.32
2019-02-19T08:20:15.946Z,101038.39
2019-02-19T08:22:39.936Z,101044.86
2019-02-19T08:25:10.029Z,101047.36
2019-02-19T08:27:38.615Z,101050.01
2019-02-19T08:30:11.104Z,101048.77
2019-02-19T08:32:39.948Z,101051.27
2019-02-19T08:35:08.505Z,101053.67
2019-02-19T08:37:37.071Z,101052.89
2019-02-19T08:40:08.045Z,101055.38
2019-02-19T08:42:36.617Z,101051.13
2019-02-19T08:45:07.125Z,101054.35
2019-02-19T08:47:42.238Z,101054.16
2019-02-19T08:50:07.786Z,101058.41
2019-02-19T08:52:36.395Z,101060.81
2019-02-19T08:55:06.134Z,101066.38
2019-02-19T08:57:34.716Z,101068.47
2019-02-19T09:00:04.841Z,101068.58
2019-02-19T09:02:33.425Z,101072.33
2019-02-19T09:05:02.024Z,101072.13
2019-02-19T09:07:30.595Z,101070.60
2019-02-19T09:09:59.170Z,101076.58
2019-02-19T09:12:27.769Z,101072.66
2019-02-19T09:14:56.337Z,101071.33
2019-02-19T09:17:24.911Z,101079.36
2019-02-19T09:19:53.474Z,101078.69
2019-02-19T09:22:22.057Z,101074.75
2019-02-19T09:24:50.637Z,101073.92
2019-02-19T09:27:19.237Z,101077.87
2019-02-19T09:29:47.797Z,101077.41
2019-02-19T09:32:16.361Z,101077.47
2019-02-19T09:34:44.969Z,101077.47
2019-02-19T09:37:13.551Z,101080.59
2019-02-19T09:39:42.140Z,101084.10
2019-02-19T09:42:10.711Z,101081.34
2019-02-19T09:44:39.318Z,101083.28
2019-02-19T09:47:07.907Z,101082.52
2019-02-19T09:49:36.473Z,101087.42
2019-02-19T09:52:05.179Z,101087.63
2019-02-19T09:54:33.822Z,101093.91
2019-02-19T09:57:02.405Z,101094.74
2019-02-19T09:59:31.360Z,101096.37
2019-02-19T10:01:59.945Z,101093.56
2019-02-19T10:04:28.519Z,101098.83
2019-02-19T10:06:57.222Z,101099.66
2019-02-19T10:09:25.815Z,101097.60
2019-02-19T10:11:54.381Z,101106.55
2019-02-19T10:14:22.988Z,101106.55
2019-02-19T10:16:51.543Z,101110.48
2019-02-19T10:19:20.117Z,101108.88
2019-02-19T10:21:48.711Z,101109.74
2019-02-19T10:24:17.302Z,101113.77
2019-02-19T10:26:45.866Z,101122.72
2019-02-19T10:29:14.434Z,101123.47
2019-02-19T10:31:43.015Z,101123.47
2019-02-19T10:34:11.587Z,101118.08
2019-02-19T10:36:40.265Z,101113.21
2019-02-19T10:39:10.953Z,101113.81
2019-02-19T10:41:39.537Z,101131.25
2019-02-19T10:44:08.111Z,101131.25
2019-02-19T10:46:36.834Z,101132.74
2019-02-19T10:49:05.426Z,101132.74
2019-02-19T10:51:34.067Z,101133.10
2019-02-19T10:54:02.632Z,101133.10
2019-02-19T10:56:31.210Z,101121.77
2019-02-19T10:58:59.786Z,101124.91
2019-02-19T11:01:28.384Z,101123.09
2019-02-19T11:03:56.956Z,101121.80
2019-02-19T11:06:25.537Z,101119.26
2019-02-19T11:08:54.110Z,101119.26
2019-02-19T11:11:22.695Z,101112.20
2019-02-19T11:13:51.296Z,101123.89
2019-02-19T11:16:19.878Z,101120.38
2019-02-19T11:18:48.475Z,101125.39
2019-02-19T11:21:19.658Z,101125.39
2019-02-19T11:23:47.376Z,101120.20
2019-02-19T11:26:15.955Z,101120.20
2019-02-19T11:28:44.532Z,101122.41
2019-02-19T11:31:13.113Z,101117.67
2019-02-19T11:33:41.706Z,101117.67
2019-02-19T11:36:10.278Z,101112.83
2019-02-19T11:38:38.899Z,101112.83
2019-02-19T11:41:07.474Z,101108.50
2019-02-19T11:43:36.031Z,101103.54
2019-02-19T11:46:04.624Z,101110.11
2019-02-19T11:48:36.970Z,101106.62
2019-02-19T11:51:03.530Z,101111.21
2019-02-19T11:53:32.110Z,101109.68
2019-02-19T11:56:00.674Z,101108.13
2019-02-19T11:58:29.270Z,101119.40
2019-02-19T12:00:57.853Z,101119.40
2019-02-19T12:03:26.467Z,101108.85
2019-02-19T12:05:55.029Z,101109.70
2019-02-19T12:08:23.685Z,101104.05
2019-02-19T12:10:52.303Z,101104.05
2019-02-19T12:13:20.903Z,101110.54
2019-02-19T12:15:49.486Z,101110.54
2019-02-19T12:18:18.065Z,101097.90
2019-02-19T12:20:46.664Z,101097.90
2019-02-19T12:23:15.245Z,101091.14
2019-02-19T12:25:43.893Z,101090.30
2019-02-19T12:28:12.482Z,101094.55
2019-02-19T12:30:41.064Z,101094.55
2019-02-19T12:33:09.649Z,101098.02
2019-02-19T12:35:38.275Z,101079.22
2019-02-19T12:38:06.830Z,101085.20
2019-02-19T12:40:35.408Z,101078.06
2019-02-19T12:43:04.072Z,101071.91
2019-02-19T12:45:32.649Z,101084.72
2019-02-19T12:48:01.250Z,101080.28
2019-02-19T12:50:29.826Z,101077.13
2019-02-19T12:52:58.455Z,101075.48
2019-02-19T12:55:27.049Z,101074.11
2019-02-19T12:57:55.631Z,101069.89
2019-02-19T13:00:24.215Z,101073.80
2019-02-19T13:02:52.826Z,101081.49
2019-02-19T13:05:21.441Z,101078.96
2019-02-19T13:07:50.036Z,101077.84
2019-02-19T13:10:18.656Z,101076.78
2019-02-19T13:12:49.065Z,101080.19
2019-02-19T13:15:19.430Z,101080.88
2019-02-19T13:17:48.010Z,101089.86
2019-02-19T13:20:16.602Z,101093.17
2019-02-19T13:22:47.283Z,101088.22
2019-02-19T13:25:15.910Z,101088.22
2019-02-19T13:27:44.483Z,101089.28
2019-02-19T13:30:17.993Z,101089.94
2019-02-19T13:32:46.565Z,101094.44
2019-02-19T13:35:15.228Z,101091.23
2019-02-19T13:37:43.786Z,101102.78
2019-02-19T13:40:17.361Z,101088.22
2019-02-19T13:42:45.966Z,101087.97
2019-02-19T13:45:15.498Z,101091.48
2019-02-19T13:47:44.071Z,101102.97
2019-02-19T13:50:24.586Z,101099.78
2019-02-19T13:52:54.795Z,101101.56
2019-02-19T13:55:25.035Z,101098.01
2019-02-19T13:57:53.641Z,101096.02
2019-02-19T14:00:23.853Z,101097.97
2019-02-19T14:02:52.452Z,101102.97
2019-02-19T14:05:21.051Z,101099.67
2019-02-19T14:07:49.644Z,101100.27
2019-02-19T14:10:18.224Z,101103.79
2019-02-19T14:12:46.790Z,101119.98
2019-02-19T14:15:17.048Z,101104.03
2019-02-19T14:17:45.631Z,101097.42
2019-02-19T14:20:15.891Z,101097.42
2019-02-19T14:22:46.152Z,101092.94
2019-02-19T14:25:16.320Z,101092.94
2019-02-19T14:28:01.556Z,101098.66
2019-02-19T14:30:31.777Z,101097.91
2019-02-19T14:33:07.734Z,101094.80
2019-02-19T14:35:55.680Z,101099.69
2019-02-19T14:38:28.630Z,101104.99
2019-02-19T14:40:58.833Z,101090.84
2019-02-19T14:43:45.319Z,101096.20
2019-02-19T14:46:32.088Z,101092.47
2019-02-19T14:49:14.396Z,101091.94
2019-02-19T14:52:02.443Z,101092.23
2019-02-19T14:54:32.680Z,101090.83
2019-02-19T14:57:05.316Z,101087.61
2019-02-19T14:59:35.554Z,101088.78
2019-02-19T15:02:21.118Z,101085.66
2019-02-19T15:05:09.150Z,101088.60
2019-02-19T15:07:43.038Z,101089.91
2019-02-19T15:10:16.176Z,101095.20
2019-02-19T15:12:46.425Z,101095.20
2019-02-19T15:15:16.639Z,101096.47
2019-02-19T15:17:46.873Z,101098.92
2019-02-19T15:20:23.406Z,101105.77
2019-02-19T15:22:56.715Z,101105.77
2019-02-19T15:25:29.638Z,101106.41
2019-02-19T15:28:12.137Z,101103.81
2019-02-19T15:30:42.382Z,101103.81
2019-02-19T15:33:18.599Z,101103.78
2019-02-19T15:36:00.816Z,101092.94
2019-02-19T15:38:40.091Z,101092.94
2019-02-19T15:41:16.137Z,101101.87
2019-02-19T15:43:46.345Z,101101.87
2019-02-19T15:46:31.816Z,101098.47
2019-02-19T15:49:07.669Z,101107.97
2019-02-19T15:51:52.674Z,101107.48
2019-02-19T15:54:28.972Z,101103.00
2019-02-19T15:56:59.214Z,101105.18
2019-02-19T15:59:32.128Z,101107.78
2019-02-19T16:02:11.092Z,101107.78
2019-02-19T16:04:41.311Z,101101.59
2019-02-19T16:07:27.731Z,101101.59
2019-02-19T16:10:10.133Z,101113.88
2019-02-19T16:12:45.891Z,101113.88
2019-02-19T16:15:24.992Z,101109.94
2019-02-19T16:17:55.191Z,101108.76
2019-02-19T16:20:25.431Z,101108.76
2019-02-19T16:23:10.488Z,101102.00
2019-02-19T16:25:46.341Z,101099.89
2019-02-19T16:28:28.234Z,101099.89
2019-02-19T16:31:00.943Z,101102.83
2019-02-19T16:33:31.190Z,101101.53
2019-02-19T16:36:01.432Z,101103.93
2019-02-19T16:38:31.621Z,101103.91
2019-02-19T16:41:10.761Z,101099.75
2019-02-19T16:43:41.006Z,101102.95
2019-02-19T16:46:11.205Z,101101.75
2019-02-19T16:48:41.414Z,101098.10
2019-02-19T16:51:16.382Z,101094.91
2019-02-19T16:54:02.429Z,101097.70
2019-02-19T16:56:49.122Z,101105.55
2019-02-19T16:59:26.961Z,101107.68
2019-02-19T17:02:07.817Z,101106.72
2019-02-19T17:04:38.043Z,101102.30
2019-02-19T17:07:23.532Z,101099.28
2019-02-19T17:10:00.825Z,101096.83
2019-02-19T17:12:47.538Z,101096.41
2019-02-19T17:15:17.707Z,101118.46
2019-02-19T17:17:47.911Z,101123.25
2019-02-19T17:20:28.788Z,101119.42
2019-02-19T17:22:53.058Z,101122.02
2019-02-19T17:25:23.280Z,101118.46
2019-02-19T17:28:02.344Z,101123.62
2019-02-19T17:30:38.220Z,101130.63
2019-02-19T17:33:08.439Z,101137.59
2019-02-19T17:35:52.472Z,101139.31
2019-02-19T17:38:28.565Z,101137.92
2019-02-19T17:41:01.220Z,101139.77
2019-02-19T17:43:44.735Z,101144.63
2019-02-19T17:46:14.934Z,101144.50
2019-02-19T17:48:48.210Z,101143.74
2019-02-19T17:51:24.360Z,101145.58
2019-02-19T17:53:57.404Z,101148.84
2019-02-19T17:56:27.602Z,101146.01
2019-02-19T17:59:14.250Z,101151.94
2019-02-19T18:01:44.476Z,101151.78
2019-02-19T18:04:17.389Z,101150.30
2019-02-19T18:06:53.611Z,101156.51
2019-02-19T18:09:26.601Z,101158.89
2019-02-19T18:12:11.768Z,101154.67
2019-02-19T18:14:44.405Z,101164.42
2019-02-19T18:17:26.588Z,101157.52
2019-02-19T18:19:55.190Z,101161.41
2019-02-19T18:22:23.774Z,101161.41
2019-02-19T18:24:52.361Z,101157.27
2019-02-19T18:27:20.913Z,101160.45
2019-02-19T18:29:49.483Z,101149.81
2019-02-19T18:32:18.075Z,101155.47
2019-02-19T18:34:46.663Z,101158.23
2019-02-19T18:37:15.255Z,101155.55
2019-02-19T18:39:43.858Z,101161.16
2019-02-19T18:42:12.417Z,101157.73
2019-02-19T18:44:41.005Z,101154.72
2019-02-19T18:47:09.965Z,101155.63
2019-02-19T18:49:38.534Z,101154.38
2019-02-19T18:52:07.156Z,101157.27
2019-02-19T18:54:35.757Z,101154.59
2019-02-19T18:57:04.303Z,101155.13
2019-02-19T18:59:32.953Z,101160.03
2019-02-19T19:02:01.528Z,101157.31
2019-02-19T19:04:30.097Z,101153.42
2019-02-19T19:06:58.719Z,101155.94
2019-02-19T19:09:27.308Z,101151.92
2019-02-19T19:11:55.894Z,101166.05
2019-02-19T19:14:24.482Z,101157.64
2019-02-19T19:16:53.080Z,101153.09
2019-02-19T19:19:21.663Z,101151.53
2019-02-19T19:21:50.246Z,101158.40
2019-02-19T19:24:18.834Z,101162.37
2019-02-19T19:26:47.444Z,101147.02
2019-02-19T19:29:16.026Z,101158.14
2019-02-19T19:31:44.612Z,101157.60
2019-02-19T19:34:14.186Z,101160.73
2019-02-19T19:36:42.764Z,101172.61
2019-02-19T19:39:11.346Z,101188.77
2019-02-19T19:41:39.935Z,101204.33
2019-02-19T19:44:09.589Z,101221.75
2019-02-19T19:46:38.189Z,101243.06
2019-02-19T19:49:06.750Z,101250.81
2019-02-19T19:51:35.323Z,101264.16
2019-02-19T19:54:03.933Z,101271.51
2019-02-19T19:56:32.518Z,101256.00
2019-02-19T19:59:02.585Z,101245.05
2019-02-19T20:01:31.138Z,101247.52
2019-02-19T20:03:59.724Z,101246.86
2019-02-19T20:06:28.882Z,101247.80
2019-02-19T20:08:57.593Z,101254.52
2019-02-19T20:11:27.739Z,101261.55
2019-02-19T20:13:56.337Z,101260.41
2019-02-19T20:16:24.913Z,101263.81
2019-02-19T20:18:53.493Z,101260.14
2019-02-19T20:21:26.711Z,101264.79
2019-02-19T20:23:52.960Z,101261.59
2019-02-19T20:26:24.949Z,101270.38
2019-02-19T20:28:53.513Z,101273.73
2019-02-19T20:31:22.085Z,101270.17
2019-02-19T20:33:50.715Z,101266.81
2019-02-19T20:36:19.389Z,101268.25
2019-02-19T20:38:49.430Z,101268.00
2019-02-19T20:41:18.006Z,101263.71
2019-02-19T20:43:46.593Z,101263.86
2019-02-19T20:46:15.172Z,101267.23
2019-02-19T20:48:43.741Z,101268.00
2019-02-19T20:51:12.374Z,101263.95
2019-02-19T20:53:41.747Z,101269.18
2019-02-19T20:56:10.333Z,101271.17
2019-02-19T20:58:40.085Z,101268.33
2019-02-19T21:01:10.192Z,101266.00
2019-02-19T21:03:38.782Z,101267.22
2019-02-19T21:06:07.740Z,101269.23
2019-02-19T21:08:36.623Z,101269.23
2019-02-19T21:11:05.215Z,101267.05
2019-02-19T21:13:33.796Z,101268.97
2019-02-19T21:16:02.421Z,101273.01
2019-02-19T21:18:31.007Z,101273.58
2019-02-19T21:20:59.677Z,101273.43
2019-02-19T21:23:29.287Z,101277.56
2019-02-19T21:25:57.919Z,101279.31
2019-02-19T21:28:26.488Z,101281.75
2019-02-19T21:30:55.064Z,101279.58
2019-02-19T21:33:24.490Z,101277.09
2019-02-19T21:35:57.594Z,101280.25
2019-02-19T21:38:23.411Z,101284.42
2019-02-19T21:40:52.015Z,101281.91
2019-02-19T21:43:20.594Z,101286.59
2019-02-19T21:45:49.156Z,101280.19
2019-02-19T21:48:17.730Z,101286.69
2019-02-19T21:50:46.329Z,101286.26
2019-02-19T21:53:14.954Z,101288.74
2019-02-19T21:55:43.563Z,101288.84
2019-02-19T21:58:12.151Z,101289.19
2019-02-19T22:00:40.728Z,101290.65
2019-02-19T22:03:09.332Z,101286.58
2019-02-19T22:05:38.229Z,101297.48
2019-02-19T22:08:06.814Z,101292.70
2019-02-19T22:10:35.363Z,101296.20
2019-02-19T22:13:04.286Z,101300.00
2019-02-19T22:15:32.855Z,101300.00
2019-02-19T22:18:01.711Z,101300.46
2019-02-19T22:20:38.459Z,101294.22
2019-02-19T22:23:07.415Z,101294.22
2019-02-19T22:25:35.941Z,101300.20
2019-02-19T22:28:05.989Z,101298.59
2019-02-19T22:30:34.685Z,101298.59
2019-02-19T22:33:03.228Z,101303.77
2019-02-19T22:35:31.767Z,101302.02
2019-02-19T22:38:00.646Z,101306.52
2019-02-19T22:40:29.207Z,101311.06
2019-02-19T22:42:57.764Z,101319.33
2019-02-19T22:45:26.623Z,101323.98
2019-02-19T22:47:55.506Z,101318.46
2019-02-19T22:50:24.056Z,101318.46
2019-02-19T22:52:53.414Z,101315.73
2019-02-19T22:55:23.608Z,101321.56
2019-02-19T22:57:52.232Z,101324.42
2019-02-19T23:00:25.468Z,101324.59
2019-02-19T23:02:54.200Z,101322.02
2019-02-19T23:05:23.768Z,101324.33
2019-02-19T23:07:53.793Z,101323.70
2019-02-19T23:10:22.438Z,101324.22
2019-02-19T23:12:51.339Z,101334.18
2019-02-19T23:15:19.901Z,101329.22
2019-02-19T23:17:48.481Z,101329.66
2019-02-19T23:20:17.047Z,101336.66
2019-02-19T23:22:45.908Z,101331.87
2019-02-19T23:25:14.765Z,101333.30
2019-02-19T23:27:43.355Z,101341.18
2019-02-19T23:30:12.021Z,101348.89
2019-02-19T23:32:40.564Z,101340.36
2019-02-19T23:35:10.800Z,101348.72
2019-02-19T23:37:39.355Z,101346.55
2019-02-19T23:40:08.266Z,101353.92
2019-02-19T23:42:36.834Z,101353.92
2019-02-19T23:45:07.744Z,101350.93
2019-02-19T23:47:36.306Z,101354.19
2019-02-19T23:50:07.132Z,101351.30
2019-02-19T23:52:35.678Z,101348.66
2019-02-19T23:55:06.224Z,101350.86
2019-02-19T23:57:34.770Z,101349.27
